sensor_id;sensor_type;location;lat;lon;timestamp;pressure;altitude;pressure_sealevel;temperature;humidity
46946;BME280;32679;40.810;14.498;2023-02-15T00:01:37;101497.09;;;6.55;89.08
46946;BME280;32679;40.810;14.498;2023-02-15T00:04:04;101492.59;;;6.59;89.58
46946;BME280;32679;40.810;14.498;2023-02-15T00:06:30;101490.88;;;6.63;88.04
46946;BME280;32679;40.810;14.498;2023-02-15T00:08:58;101484.81;;;6.47;87.72
46946;BME280;32679;40.810;14.498;2023-02-15T00:11:27;101480.00;;;6.53;88.36
46946;BME280;32679;40.810;14.498;2023-02-15T00:14:09;101465.78;;;6.60;88.36
46946;BME280;32679;40.810;14.498;2023-02-15T00:16:35;101479.91;;;6.58;87.99
46946;BME280;32679;40.810;14.498;2023-02-15T00:19:02;101474.38;;;6.58;88.41
46946;BME280;32679;40.810;14.498;2023-02-15T00:21:29;101469.88;;;6.62;88.26
46946;BME280;32679;40.810;14.498;2023-02-15T00:23:56;101471.72;;;6.53;88.38
46946;BME280;32679;40.810;14.498;2023-02-15T00:26:22;101472.22;;;6.55;88.97
46946;BME280;32679;40.810;14.498;2023-02-15T00:28:47;101460.34;;;6.54;88.20
46946;BME280;32679;40.810;14.498;2023-02-15T00:31:13;101461.69;;;6.57;87.55
46946;BME280;32679;40.810;14.498;2023-02-15T00:33:43;101462.09;;;6.50;88.16
46946;BME280;32679;40.810;14.498;2023-02-15T00:36:11;101471.28;;;6.46;87.91
46946;BME280;32679;40.810;14.498;2023-02-15T00:38:37;101463.09;;;6.41;89.42
46946;BME280;32679;40.810;14.498;2023-02-15T00:41:05;101475.09;;;6.50;89.01
46946;BME280;32679;40.810;14.498;2023-02-15T00:43:32;101456.25;;;6.52;88.31
46946;BME280;32679;40.810;14.498;2023-02-15T00:45:59;101458.91;;;6.57;88.11
46946;BME280;32679;40.810;14.498;2023-02-15T00:48:25;101456.25;;;6.52;88.64
46946;BME280;32679;40.810;14.498;2023-02-15T00:50:58;101459.00;;;6.52;89.15
46946;BME280;32679;40.810;14.498;2023-02-15T00:53:26;101458.06;;;6.43;87.48
46946;BME280;32679;40.810;14.498;2023-02-15T00:55:52;101461.66;;;6.43;88.96
46946;BME280;32679;40.810;14.498;2023-02-15T00:58:17;101459.78;;;6.39;89.04
46946;BME280;32679;40.810;14.498;2023-02-15T01:00:44;101458.16;;;6.38;89.55
46946;BME280;32679;40.810;14.498;2023-02-15T01:03:14;101453.25;;;6.35;89.47
46946;BME280;32679;40.810;14.498;2023-02-15T01:05:40;101448.63;;;6.30;89.95
46946;BME280;32679;40.810;14.498;2023-02-15T01:08:08;101456.94;;;6.44;89.63
46946;BME280;32679;40.810;14.498;2023-02-15T01:10:37;101445.16;;;6.38;89.59
46946;BME280;32679;40.810;14.498;2023-02-15T01:13:05;101446.06;;;6.34;89.78
46946;BME280;32679;40.810;14.498;2023-02-15T01:15:34;101439.72;;;6.33;89.59
46946;BME280;32679;40.810;14.498;2023-02-15T01:18:02;101442.19;;;6.35;89.68
46946;BME280;32679;40.810;14.498;2023-02-15T01:20:28;101445.25;;;6.33;88.56
46946;BME280;32679;40.810;14.498;2023-02-15T01:22:55;101440.72;;;6.23;88.64
46946;BME280;32679;40.810;14.498;2023-02-15T01:25:22;101440.44;;;6.25;88.69
46946;BME280;32679;40.810;14.498;2023-02-15T01:27:48;101428.31;;;6.21;88.81
46946;BME280;32679;40.810;14.498;2023-02-15T01:30:14;101432.44;;;6.23;88.06
46946;BME280;32679;40.810;14.498;2023-02-15T01:32:41;101440.09;;;6.26;87.28
46946;BME280;32679;40.810;14.498;2023-02-15T01:35:10;101432.13;;;6.25;88.55
46946;BME280;32679;40.810;14.498;2023-02-15T01:37:36;101419.63;;;6.14;87.87
46946;BME280;32679;40.810;14.498;2023-02-15T01:40:05;101420.09;;;6.02;86.21
46946;BME280;32679;40.810;14.498;2023-02-15T01:42:31;101409.31;;;6.00;87.38
46946;BME280;32679;40.810;14.498;2023-02-15T01:50:36;101410.59;;;6.08;86.01
46946;BME280;32679;40.810;14.498;2023-02-15T01:55:47;101400.56;;;6.12;84.55
46946;BME280;32679;40.810;14.498;2023-02-15T01:58:14;101401.03;;;6.00;85.95
46946;BME280;32679;40.810;14.498;2023-02-15T02:00:40;101400.75;;;6.02;86.02
46946;BME280;32679;40.810;14.498;2023-02-15T02:03:06;101398.16;;;5.92;86.55
46946;BME280;32679;40.810;14.498;2023-02-15T02:05:34;101403.00;;;6.00;87.28
46946;BME280;32679;40.810;14.498;2023-02-15T02:08:05;101399.31;;;6.04;87.53
46946;BME280;32679;40.810;14.498;2023-02-15T02:10:35;101399.53;;;6.08;87.72
46946;BME280;32679;40.810;14.498;2023-02-15T02:13:04;101383.34;;;6.01;86.96
46946;BME280;32679;40.810;14.498;2023-02-15T02:46:34;101403.09;;;5.76;86.98
46946;BME280;32679;40.810;14.498;2023-02-15T02:49:04;101413.09;;;5.72;85.97
46946;BME280;32679;40.810;14.498;2023-02-15T02:51:30;101404.06;;;5.66;86.81
46946;BME280;32679;40.810;14.498;2023-02-15T02:53:59;101397.34;;;5.72;86.30
46946;BME280;32679;40.810;14.498;2023-02-15T02:56:31;101353.94;;;5.40;86.44
46946;BME280;32679;40.810;14.498;2023-02-15T02:59:07;101400.41;;;5.71;86.08
46946;BME280;32679;40.810;14.498;2023-02-15T03:01:59;101397.03;;;5.74;84.88
46946;BME280;32679;40.810;14.498;2023-02-15T03:04:32;101392.84;;;5.76;84.62
46946;BME280;32679;40.810;14.498;2023-02-15T03:07:05;101401.44;;;5.75;83.38
46946;BME280;32679;40.810;14.498;2023-02-15T03:09:44;101397.56;;;5.76;82.81
46946;BME280;32679;40.810;14.498;2023-02-15T03:12:29;101388.75;;;5.74;82.33
46946;BME280;32679;40.810;14.498;2023-02-15T03:14:56;101393.44;;;5.73;82.25
46946;BME280;32679;40.810;14.498;2023-02-15T03:17:26;101395.16;;;5.69;83.18
46946;BME280;32679;40.810;14.498;2023-02-15T03:19:55;101393.91;;;5.62;83.11
46946;BME280;32679;40.810;14.498;2023-02-15T03:22:41;101399.75;;;5.60;84.23
46946;BME280;32679;40.810;14.498;2023-02-15T03:25:21;101393.59;;;5.63;85.51
46946;BME280;32679;40.810;14.498;2023-02-15T03:27:55;101395.03;;;5.61;85.33
46946;BME280;32679;40.810;14.498;2023-02-15T03:30:24;101382.78;;;5.67;85.36
46946;BME280;32679;40.810;14.498;2023-02-15T03:32:51;101395.16;;;5.69;85.13
46946;BME280;32679;40.810;14.498;2023-02-15T03:35:21;101398.53;;;5.66;86.05
46946;BME280;32679;40.810;14.498;2023-02-15T03:37:59;101396.09;;;5.65;86.75
46946;BME280;32679;40.810;14.498;2023-02-15T03:40:38;101401.81;;;5.68;85.94
46946;BME280;32679;40.810;14.498;2023-02-15T03:44:11;101384.00;;;5.61;86.32
46946;BME280;32679;40.810;14.498;2023-02-15T03:48:57;101395.44;;;5.54;88.23
46946;BME280;32679;40.810;14.498;2023-02-15T03:51:29;101393.59;;;5.63;88.14
46946;BME280;32679;40.810;14.498;2023-02-15T03:54:27;101401.38;;;5.61;89.26
46946;BME280;32679;40.810;14.498;2023-02-15T03:59:58;101396.69;;;5.62;89.94
46946;BME280;32679;40.810;14.498;2023-02-15T04:02:52;101391.47;;;5.60;89.07
46946;BME280;32679;40.810;14.498;2023-02-15T04:05:20;101393.59;;;5.63;89.95
46946;BME280;32679;40.810;14.498;2023-02-15T04:07:46;101394.38;;;5.50;89.26
46946;BME280;32679;40.810;14.498;2023-02-15T04:10:11;101398.09;;;5.59;89.86
46946;BME280;32679;40.810;14.498;2023-02-15T04:12:56;101363.75;;;5.33;89.37
46946;BME280;32679;40.810;14.498;2023-02-15T04:15:24;101395.78;;;5.47;90.11
46946;BME280;32679;40.810;14.498;2023-02-15T04:18:07;101393.56;;;5.49;89.55
46946;BME280;32679;40.810;14.498;2023-02-15T04:20:45;101400.50;;;5.47;88.26
46946;BME280;32679;40.810;14.498;2023-02-15T04:23:30;101409.06;;;5.45;87.51
46946;BME280;32679;40.810;14.498;2023-02-15T04:26:14;101405.94;;;5.52;87.01
46946;BME280;32679;40.810;14.498;2023-02-15T04:28:39;101402.94;;;5.48;87.76
46946;BME280;32679;40.810;14.498;2023-02-15T04:31:05;101410.31;;;5.53;87.08
46946;BME280;32679;40.810;14.498;2023-02-15T04:33:33;101407.66;;;5.48;86.25
46946;BME280;32679;40.810;14.498;2023-02-15T04:36:01;101399.38;;;5.48;86.66
46946;BME280;32679;40.810;14.498;2023-02-15T04:38:26;101407.72;;;5.43;85.17
46946;BME280;32679;40.810;14.498;2023-02-15T04:40:54;101413.63;;;5.36;85.22
46946;BME280;32679;40.810;14.498;2023-02-15T04:43:23;101412.41;;;5.42;82.99
46946;BME280;32679;40.810;14.498;2023-02-15T04:45:49;101419.22;;;5.31;83.07
46946;BME280;32679;40.810;14.498;2023-02-15T04:48:16;101413.63;;;5.17;83.19
46946;BME280;32679;40.810;14.498;2023-02-15T04:50:43;101420.53;;;5.15;84.47
46946;BME280;32679;40.810;14.498;2023-02-15T04:53:08;101415.09;;;5.10;85.26
46946;BME280;32679;40.810;14.498;2023-02-15T04:55:34;101423.16;;;5.06;83.94
46946;BME280;32679;40.810;14.498;2023-02-15T04:57:59;101414.94;;;5.01;84.94
46946;BME280;32679;40.810;14.498;2023-02-15T05:00:27;101418.38;;;5.12;85.41
46946;BME280;32679;40.810;14.498;2023-02-15T05:02:53;101415.44;;;5.03;85.10
46946;BME280;32679;40.810;14.498;2023-02-15T05:05:19;101417.16;;;4.99;86.15
46946;BME280;32679;40.810;14.498;2023-02-15T05:07:44;101422.09;;;5.02;86.89
46946;BME280;32679;40.810;14.498;2023-02-15T05:10:10;101421.03;;;4.98;86.75
46946;BME280;32679;40.810;14.498;2023-02-15T05:12:36;101427.25;;;5.09;86.87
46946;BME280;32679;40.810;14.498;2023-02-15T05:15:01;101425.91;;;5.06;86.86
46946;BME280;32679;40.810;14.498;2023-02-15T05:17:27;101419.78;;;5.09;87.19
46946;BME280;32679;40.810;14.498;2023-02-15T05:19:52;101435.16;;;5.15;87.42
46946;BME280;32679;40.810;14.498;2023-02-15T05:22:18;101424.94;;;5.16;87.35
46946;BME280;32679;40.810;14.498;2023-02-15T05:24:43;101420.59;;;5.10;87.96
46946;BME280;32679;40.810;14.498;2023-02-15T05:27:41;101426.41;;;5.08;88.14
46946;BME280;32679;40.810;14.498;2023-02-15T05:30:25;101421.72;;;5.09;89.10
46946;BME280;32679;40.810;14.498;2023-02-15T05:32:50;101426.34;;;5.13;89.23
46946;BME280;32679;40.810;14.498;2023-02-15T05:35:18;101420.91;;;5.08;89.36
46946;BME280;32679;40.810;14.498;2023-02-15T05:37:44;101423.72;;;5.03;88.81
46946;BME280;32679;40.810;14.498;2023-02-15T05:40:10;101423.72;;;5.03;89.17
46946;BME280;32679;40.810;14.498;2023-02-15T05:42:35;101427.53;;;5.07;88.83
46946;BME280;32679;40.810;14.498;2023-02-15T05:45:01;101427.47;;;5.12;88.34
46946;BME280;32679;40.810;14.498;2023-02-15T05:47:31;101424.78;;;5.07;88.37
46946;BME280;32679;40.810;14.498;2023-02-15T05:49:56;101424.19;;;5.10;88.88
46946;BME280;32679;40.810;14.498;2023-02-15T05:52:24;101427.47;;;5.12;88.67
46946;BME280;32679;40.810;14.498;2023-02-15T05:54:52;101430.31;;;5.07;89.32
46946;BME280;32679;40.810;14.498;2023-02-15T05:57:17;101432.53;;;5.05;89.89
46946;BME280;32679;40.810;14.498;2023-02-15T05:59:45;101431.63;;;5.10;90.87
46946;BME280;32679;40.810;14.498;2023-02-15T06:02:10;101425.81;;;5.11;90.49
46946;BME280;32679;40.810;14.498;2023-02-15T06:04:36;101435.16;;;5.15;90.70
46946;BME280;32679;40.810;14.498;2023-02-15T06:07:02;101439.53;;;5.16;90.82
46946;BME280;32679;40.810;14.498;2023-02-15T06:09:27;101446.00;;;5.68;90.58
46946;BME280;32679;40.810;14.498;2023-02-15T06:11:53;101450.56;;;6.29;86.74
46946;BME280;32679;40.810;14.498;2023-02-15T06:14:18;101440.19;;;6.81;84.28
46946;BME280;32679;40.810;14.498;2023-02-15T06:16:43;101442.41;;;7.34;82.00
46946;BME280;32679;40.810;14.498;2023-02-15T06:19:09;101434.06;;;7.84;79.22
46946;BME280;32679;40.810;14.498;2023-02-15T06:21:34;101446.13;;;8.33;76.37
46946;BME280;32679;40.810;14.498;2023-02-15T06:24:02;101443.00;;;8.80;73.12
46946;BME280;32679;40.810;14.498;2023-02-15T06:26:28;101440.53;;;9.35;70.92
46946;BME280;32679;40.810;14.498;2023-02-15T06:28:53;101446.13;;;9.79;66.79
46946;BME280;32679;40.810;14.498;2023-02-15T06:31:22;101450.69;;;10.27;64.56
46946;BME280;32679;40.810;14.498;2023-02-15T06:33:50;101452.81;;;10.85;62.55
46946;BME280;32679;40.810;14.498;2023-02-15T06:36:15;101457.78;;;11.39;59.67
46946;BME280;32679;40.810;14.498;2023-02-15T06:38:44;101456.16;;;11.88;57.64
46946;BME280;32679;40.810;14.498;2023-02-15T06:41:09;101454.63;;;12.45;55.26
46946;BME280;32679;40.810;14.498;2023-02-15T06:43:35;101457.25;;;12.99;53.73
46946;BME280;32679;40.810;14.498;2023-02-15T06:46:00;101454.41;;;13.32;50.35
46946;BME280;32679;40.810;14.498;2023-02-15T06:48:26;101452.03;;;13.58;49.80
46946;BME280;32679;40.810;14.498;2023-02-15T06:50:52;101463.56;;;13.97;48.57
46946;BME280;32679;40.810;14.498;2023-02-15T06:53:17;101467.03;;;14.34;47.17
46946;BME280;32679;40.810;14.498;2023-02-15T06:55:43;101465.94;;;14.51;45.44
46946;BME280;32679;40.810;14.498;2023-02-15T06:58:08;101470.66;;;14.94;45.47
46946;BME280;32679;40.810;14.498;2023-02-15T07:00:37;101465.75;;;15.39;44.80
46946;BME280;32679;40.810;14.498;2023-02-15T07:03:05;101462.09;;;15.54;44.28
46946;BME280;32679;40.810;14.498;2023-02-15T07:05:33;101459.38;;;15.93;43.85
46946;BME280;32679;40.810;14.498;2023-02-15T07:07:59;101464.84;;;16.24;42.44
46946;BME280;32679;40.810;14.498;2023-02-15T07:10:28;101465.56;;;16.41;41.75
46946;BME280;32679;40.810;14.498;2023-02-15T07:12:53;101462.28;;;16.58;40.92
46946;BME280;32679;40.810;14.498;2023-02-15T07:15:21;101464.38;;;17.07;40.71
46946;BME280;32679;40.810;14.498;2023-02-15T07:17:47;101466.88;;;17.12;41.01
46946;BME280;32679;40.810;14.498;2023-02-15T07:20:17;101449.38;;;17.22;39.87
46946;BME280;32679;40.810;14.498;2023-02-15T07:22:43;101459.00;;;17.21;39.47
46946;BME280;32679;40.810;14.498;2023-02-15T07:25:10;101453.97;;;16.85;38.47
46946;BME280;32679;40.810;14.498;2023-02-15T07:27:36;101460.50;;;16.92;39.01
46946;BME280;32679;40.810;14.498;2023-02-15T07:30:03;101454.88;;;16.27;39.58
46946;BME280;32679;40.810;14.498;2023-02-15T07:32:30;101451.09;;;15.81;40.07
46946;BME280;32679;40.810;14.498;2023-02-15T07:34:55;101452.13;;;16.11;40.20
46946;BME280;32679;40.810;14.498;2023-02-15T07:37:21;101451.72;;;16.09;41.87
46946;BME280;32679;40.810;14.498;2023-02-15T07:39:49;101449.03;;;17.01;38.96
46946;BME280;32679;40.810;14.498;2023-02-15T07:42:14;101457.44;;;17.01;38.28
46946;BME280;32679;40.810;14.498;2023-02-15T07:44:45;101459.59;;;16.65;38.12
46946;BME280;32679;40.810;14.498;2023-02-15T07:47:13;101453.13;;;17.07;38.06
46946;BME280;32679;40.810;14.498;2023-02-15T07:49:38;101454.34;;;16.83;39.00
46946;BME280;32679;40.810;14.498;2023-02-15T07:52:04;101455.28;;;16.91;39.22
46946;BME280;32679;40.810;14.498;2023-02-15T07:54:29;101454.22;;;17.25;39.20
46946;BME280;32679;40.810;14.498;2023-02-15T07:56:55;101467.44;;;17.48;37.05
46946;BME280;32679;40.810;14.498;2023-02-15T07:59:20;101462.81;;;17.10;39.19
46946;BME280;32679;40.810;14.498;2023-02-15T08:01:46;101468.28;;;17.52;37.99
46946;BME280;32679;40.810;14.498;2023-02-15T08:04:11;101457.84;;;16.57;40.17
46946;BME280;32679;40.810;14.498;2023-02-15T08:06:37;101458.47;;;17.39;38.80
46946;BME280;32679;40.810;14.498;2023-02-15T08:09:07;101466.72;;;16.79;39.63
46946;BME280;32679;40.810;14.498;2023-02-15T08:11:35;101466.09;;;16.69;40.18
46946;BME280;32679;40.810;14.498;2023-02-15T08:18:56;101455.38;;;17.47;38.52
46946;BME280;32679;40.810;14.498;2023-02-15T08:21:24;101457.44;;;18.11;38.38
46946;BME280;32679;40.810;14.498;2023-02-15T08:23:50;101459.59;;;18.54;38.14
46946;BME280;32679;40.810;14.498;2023-02-15T08:26:16;101459.44;;;17.76;38.95
46946;BME280;32679;40.810;14.498;2023-02-15T08:28:44;101463.56;;;18.53;38.61
46946;BME280;32679;40.810;14.498;2023-02-15T08:31:13;101462.75;;;18.87;36.89
46946;BME280;32679;40.810;14.498;2023-02-15T08:33:41;101467.00;;;19.14;37.29
46946;BME280;32679;40.810;14.498;2023-02-15T08:36:18;101463.06;;;19.84;36.61
46946;BME280;32679;40.810;14.498;2023-02-15T08:38:47;101464.22;;;19.73;34.71
46946;BME280;32679;40.810;14.498;2023-02-15T08:41:21;101470.81;;;19.36;35.91
46946;BME280;32679;40.810;14.498;2023-02-15T08:43:48;101459.50;;;19.95;35.06
46946;BME280;32679;40.810;14.498;2023-02-15T08:46:18;101471.66;;;19.44;35.84
46946;BME280;32679;40.810;14.498;2023-02-15T08:48:44;101460.34;;;18.89;35.49
46946;BME280;32679;40.810;14.498;2023-02-15T08:51:16;101461.50;;;18.47;36.65
46946;BME280;32679;40.810;14.498;2023-02-15T08:53:46;101461.94;;;18.15;37.80
46946;BME280;32679;40.810;14.498;2023-02-15T08:56:15;101466.13;;;19.03;36.20
46946;BME280;32679;40.810;14.498;2023-02-15T08:58:42;101463.31;;;18.28;36.35
46946;BME280;32679;40.810;14.498;2023-02-15T09:01:18;101484.31;;;18.68;35.90
46946;BME280;32679;40.810;14.498;2023-02-15T09:03:46;101473.47;;;18.37;35.99
46946;BME280;32679;40.810;14.498;2023-02-15T09:06:12;101478.06;;;18.89;34.11
46946;BME280;32679;40.810;14.498;2023-02-15T09:08:38;101480.19;;;19.51;34.47
46946;BME280;32679;40.810;14.498;2023-02-15T09:11:16;101491.94;;;20.33;32.70
46946;BME280;32679;40.810;14.498;2023-02-15T09:13:49;101483.19;;;20.63;33.11
46946;BME280;32679;40.810;14.498;2023-02-15T09:16:15;101484.78;;;20.57;33.14
46946;BME280;32679;40.810;14.498;2023-02-15T09:18:43;101483.75;;;20.06;32.97
46946;BME280;32679;40.810;14.498;2023-02-15T09:21:16;101491.44;;;20.13;32.56
46946;BME280;32679;40.810;14.498;2023-02-15T09:23:44;101481.13;;;20.60;31.15
46946;BME280;32679;40.810;14.498;2023-02-15T09:26:24;101486.00;;;20.77;31.27
46946;BME280;32679;40.810;14.498;2023-02-15T09:28:56;101487.25;;;20.98;31.28
46946;BME280;32679;40.810;14.498;2023-02-15T09:31:28;101486.47;;;21.43;30.67
46946;BME280;32679;40.810;14.498;2023-02-15T09:33:55;101485.47;;;20.32;31.59
46946;BME280;32679;40.810;14.498;2023-02-15T09:39:05;101492.41;;;20.49;31.18
46946;BME280;32679;40.810;14.498;2023-02-15T09:47:45;101494.25;;;20.06;32.49
46946;BME280;32679;40.810;14.498;2023-02-15T10:12:45;101490.34;;;20.35;33.49
46946;BME280;32679;40.810;14.498;2023-02-15T10:23:50;101494.25;;;20.13;33.53
46946;BME280;32679;40.810;14.498;2023-02-15T10:26:46;101497.16;;;20.20;34.02
46946;BME280;32679;40.810;14.498;2023-02-15T10:29:30;101470.34;;;19.85;33.95
46946;BME280;32679;40.810;14.498;2023-02-15T10:56:40;101476.31;;;20.57;30.05
46946;BME280;32679;40.810;14.498;2023-02-15T11:01:47;101471.09;;;21.09;30.75
46946;BME280;32679;40.810;14.498;2023-02-15T11:06:54;101466.66;;;20.83;30.86
46946;BME280;32679;40.810;14.498;2023-02-15T11:09:24;101462.56;;;20.62;31.25
46946;BME280;32679;40.810;14.498;2023-02-15T11:11:53;101459.22;;;20.32;32.09
46946;BME280;32679;40.810;14.498;2023-02-15T11:17:10;101456.50;;;20.57;31.80
46946;BME280;32679;40.810;14.498;2023-02-15T11:22:21;101459.91;;;20.00;32.61
46946;BME280;32679;40.810;14.498;2023-02-15T11:24:47;101450.34;;;20.26;33.39
46946;BME280;32679;40.810;14.498;2023-02-15T11:27:22;101447.44;;;20.12;35.03
46946;BME280;32679;40.810;14.498;2023-02-15T11:32:37;101449.44;;;19.38;37.20
46946;BME280;32679;40.810;14.498;2023-02-15T11:35:19;101434.09;;;18.44;38.51
46946;BME280;32679;40.810;14.498;2023-02-15T11:37:57;101444.34;;;19.03;37.11
46946;BME280;32679;40.810;14.498;2023-02-15T11:40:33;101427.34;;;18.93;36.62
46946;BME280;32679;40.810;14.498;2023-02-15T11:43:28;101440.50;;;18.41;36.90
46946;BME280;32679;40.810;14.498;2023-02-15T11:45:51;101438.47;;;18.38;37.24
46946;BME280;32679;40.810;14.498;2023-02-15T11:48:17;101432.78;;;18.71;36.80
46946;BME280;32679;40.810;14.498;2023-02-15T11:50:45;101430.34;;;19.14;36.27
46946;BME280;32679;40.810;14.498;2023-02-15T11:53:17;101440.72;;;19.03;36.79
46946;BME280;32679;40.810;14.498;2023-02-15T11:55:45;101432.59;;;19.53;34.27
46946;BME280;32679;40.810;14.498;2023-02-15T12:01:33;101421.31;;;19.53;33.85
46946;BME280;32679;40.810;14.498;2023-02-15T12:06:48;101423.75;;;19.58;33.91
46946;BME280;32679;40.810;14.498;2023-02-15T12:09:28;101424.50;;;19.44;35.22
46946;BME280;32679;40.810;14.498;2023-02-15T12:12:23;101418.56;;;19.05;38.03
46946;BME280;32679;40.810;14.498;2023-02-15T12:14:51;101417.03;;;18.29;40.88
46946;BME280;32679;40.810;14.498;2023-02-15T12:17:21;101418.22;;;19.10;39.46
46946;BME280;32679;40.810;14.498;2023-02-15T12:19:49;101408.25;;;19.23;37.57
46946;BME280;32679;40.810;14.498;2023-02-15T12:22:26;101413.28;;;18.96;39.91
46946;BME280;32679;40.810;14.498;2023-02-15T12:24:58;101406.22;;;18.72;39.40
46946;BME280;32679;40.810;14.498;2023-02-15T12:27:27;101406.28;;;18.79;39.11
46946;BME280;32679;40.810;14.498;2023-02-15T12:30:04;101405.63;;;19.00;38.74
46946;BME280;32679;40.810;14.498;2023-02-15T12:32:51;101396.50;;;17.92;41.60
46946;BME280;32679;40.810;14.498;2023-02-15T12:35:30;101399.69;;;18.24;40.69
46946;BME280;32679;40.810;14.498;2023-02-15T12:38:02;101401.22;;;18.58;40.00
46946;BME280;32679;40.810;14.498;2023-02-15T12:40:32;101394.44;;;18.22;40.02
46946;BME280;32679;40.810;14.498;2023-02-15T12:42:59;101384.53;;;18.02;41.35
46946;BME280;32679;40.810;14.498;2023-02-15T12:45:27;101389.00;;;17.73;43.88
46946;BME280;32679;40.810;14.498;2023-02-15T12:50:37;101388.38;;;17.87;43.98
46946;BME280;32679;40.810;14.498;2023-02-15T12:53:18;101379.53;;;17.85;43.99
46946;BME280;32679;40.810;14.498;2023-02-15T12:55:56;101376.38;;;17.93;43.58
46946;BME280;32679;40.810;14.498;2023-02-15T12:58:26;101377.56;;;17.62;43.61
46946;BME280;32679;40.810;14.498;2023-02-15T13:01:12;101376.25;;;17.83;45.22
46946;BME280;32679;40.810;14.498;2023-02-15T13:03:49;101379.13;;;16.99;46.46
46946;BME280;32679;40.810;14.498;2023-02-15T13:06:18;101365.63;;;17.12;45.99
46946;BME280;32679;40.810;14.498;2023-02-15T13:08:50;101367.19;;;17.66;45.73
46946;BME280;32679;40.810;14.498;2023-02-15T13:11:25;101373.75;;;17.74;44.48
46946;BME280;32679;40.810;14.498;2023-02-15T13:14:01;101367.56;;;17.65;45.49
46946;BME280;32679;40.810;14.498;2023-02-15T13:16:37;101364.09;;;17.45;45.96
46946;BME280;32679;40.810;14.498;2023-02-15T13:19:10;101361.09;;;17.04;47.54
46946;BME280;32679;40.810;14.498;2023-02-15T13:21:39;101364.34;;;17.33;47.84
46946;BME280;32679;40.810;14.498;2023-02-15T13:26:47;101362.88;;;17.42;47.64
46946;BME280;32679;40.810;14.498;2023-02-15T13:29:25;101360.56;;;17.51;46.83
46946;BME280;32679;40.810;14.498;2023-02-15T13:31:52;101363.97;;;17.68;47.02
46946;BME280;32679;40.810;14.498;2023-02-15T13:34:45;101364.34;;;17.33;47.68
46946;BME280;32679;40.810;14.498;2023-02-15T13:39:57;101351.63;;;17.46;48.65
46946;BME280;32679;40.810;14.498;2023-02-15T13:42:32;101325.25;;;16.97;49.20
46946;BME280;32679;40.810;14.498;2023-02-15T13:51:52;101341.53;;;16.85;48.66
46946;BME280;32679;40.810;14.498;2023-02-15T13:54:36;101346.59;;;17.28;48.07
46946;BME280;32679;40.810;14.498;2023-02-15T13:57:35;101353.41;;;17.58;46.86
46946;BME280;32679;40.810;14.498;2023-02-15T14:00:30;101351.41;;;17.28;47.56
46946;BME280;32679;40.810;14.498;2023-02-15T14:03:11;101349.44;;;17.62;46.67
46946;BME280;32679;40.810;14.498;2023-02-15T14:22:25;101370.94;;;16.91;54.83
46946;BME280;32679;40.810;14.498;2023-02-15T14:30:40;101365.75;;;17.19;53.16
46946;BME280;32679;40.810;14.498;2023-02-15T14:35:54;101358.81;;;16.87;53.50
46946;BME280;32679;40.810;14.498;2023-02-15T14:38:38;101356.94;;;16.94;53.78
46946;BME280;32679;40.810;14.498;2023-02-15T14:46:27;101341.09;;;16.83;53.83
46946;BME280;32679;40.810;14.498;2023-02-15T14:49:05;101369.56;;;16.58;55.49
46946;BME280;32679;40.810;14.498;2023-02-15T14:56:46;101371.38;;;16.47;53.51
46946;BME280;32679;40.810;14.498;2023-02-15T15:01:38;101362.28;;;16.11;52.58
46946;BME280;32679;40.810;14.498;2023-02-15T15:04:13;101370.91;;;15.99;53.75
46946;BME280;32679;40.810;14.498;2023-02-15T15:07:02;101355.53;;;15.93;54.23
46946;BME280;32679;40.810;14.498;2023-02-15T15:09:33;101375.47;;;15.88;55.34
46946;BME280;32679;40.810;14.498;2023-02-15T15:14:49;101377.56;;;15.71;54.69
46946;BME280;32679;40.810;14.498;2023-02-15T15:22:31;101377.34;;;15.45;53.41
46946;BME280;32679;40.810;14.498;2023-02-15T15:25:08;101375.03;;;15.66;52.81
46946;BME280;32679;40.810;14.498;2023-02-15T15:27:42;101379.47;;;15.67;52.54
46946;BME280;32679;40.810;14.498;2023-02-15T15:41:42;101383.34;;;15.08;54.82
46946;BME280;32679;40.810;14.498;2023-02-15T15:47:19;101390.88;;;14.73;56.43
46946;BME280;32679;40.810;14.498;2023-02-15T15:49:49;101390.69;;;14.65;57.44
46946;BME280;32679;40.810;14.498;2023-02-15T15:52:20;101402.78;;;14.70;57.40
46946;BME280;32679;40.810;14.498;2023-02-15T15:54:50;101404.22;;;14.48;58.66
46946;BME280;32679;40.810;14.498;2023-02-15T15:57:33;101405.84;;;14.49;59.05
46946;BME280;32679;40.810;14.498;2023-02-15T16:00:00;101407.34;;;14.46;59.36
46946;BME280;32679;40.810;14.498;2023-02-15T16:02:26;101409.31;;;14.30;60.29
46946;BME280;32679;40.810;14.498;2023-02-15T16:04:52;101412.09;;;14.14;61.53
46946;BME280;32679;40.810;14.498;2023-02-15T16:10:05;101415.44;;;13.92;64.32
46946;BME280;32679;40.810;14.498;2023-02-15T16:12:34;101421.66;;;13.85;66.13
46946;BME280;32679;40.810;14.498;2023-02-15T16:15:20;101424.47;;;13.73;67.33
46946;BME280;32679;40.810;14.498;2023-02-15T16:17:51;101422.53;;;13.61;68.23
46946;BME280;32679;40.810;14.498;2023-02-15T16:26:14;101420.97;;;13.11;70.94
46946;BME280;32679;40.810;14.498;2023-02-15T16:28:52;101429.56;;;13.06;72.13
46946;BME280;32679;40.810;14.498;2023-02-15T16:31:19;101431.06;;;13.03;72.09
46946;BME280;32679;40.810;14.498;2023-02-15T16:33:45;101434.69;;;12.92;72.93
46946;BME280;32679;40.810;14.498;2023-02-15T16:36:33;101439.69;;;12.86;73.11
46946;BME280;32679;40.810;14.498;2023-02-15T16:41:28;101448.97;;;12.66;74.72
46946;BME280;32679;40.810;14.498;2023-02-15T16:44:00;101451.41;;;12.67;74.67